Time;durP1;ratioP1;P1;durP2;ratioP2;P2;SDS_P1;SDS_P2;PMS_P1;PMS_P2;Temp;Humidity;BMP_temperature;BMP_pressure;BME280_temperature;BME280_humidity;BME280_pressure;Samples;Min_cycle;Max_cycle;Signal;HPM_P1;HPM_P2
2022/09/05 00:01:54;;;;;;;1.00;0.80;;;18.40;58.50;20.50;94362.00;;;;10472546;28;45342;-57
2022/09/05 00:07:24;;;;;;;0.85;0.60;;;18.40;59.00;20.50;94339.00;;;;10471954;28;45241;-58
2022/09/05 00:12:46;;;;;;;3.33;1.02;;;18.40;58.30;20.50;94352.00;;;;10466410;28;45261;-58
2022/09/05 00:18:41;;;;;;;2.88;1.25;;;18.40;58.30;20.50;94353.00;;;;10443396;28;45675;-58
2022/09/05 00:24:25;;;;;;;0.85;0.80;;;18.30;58.10;20.40;94357.00;;;;10429452;28;45159;-58
2022/09/05 00:30:09;;;;;;;1.23;0.70;;;18.30;58.10;20.50;94349.00;;;;10428742;28;45206;-57
2022/09/05 00:35:58;;;;;;;0.60;0.60;;;18.40;58.00;20.40;94340.00;;;;10429238;28;45171;-58
2022/09/05 00:41:21;;;;;;;1.08;0.63;;;18.30;58.00;20.50;94338.00;;;;10443529;28;45278;-56
2022/09/05 00:46:52;;;;;;;1.42;0.80;;;18.30;58.00;20.40;94341.00;;;;10462075;28;45679;-58
2022/09/05 00:52:19;;;;;;;1.73;0.60;;;18.30;57.90;20.40;94337.00;;;;10436038;28;45933;-58
2022/09/05 00:57:55;;;;;;;;;;;18.30;57.80;20.40;94334.00;;;;10435311;28;45204;-59
2022/09/05 01:03:44;;;;;;;1.25;0.60;;;18.30;57.80;20.40;94350.00;;;;10425153;28;45274;-56
2022/09/05 01:09:33;;;;;;;0.63;0.60;;;18.30;57.80;20.40;94347.00;;;;10429704;28;45242;-58
2022/09/05 01:15:09;;;;;;;2.42;0.80;;;18.30;57.80;20.40;94333.00;;;;10428880;28;45204;-57
2022/09/05 01:20:45;;;;;;;0.70;0.70;;;18.20;57.80;20.40;94345.00;;;;10428591;28;45131;-58
2022/09/05 01:26:51;;;;;;;0.88;0.70;;;18.20;57.80;20.40;94345.00;;;;10428837;28;45168;-58
2022/09/05 01:32:26;;;;;;;0.60;0.60;;;18.30;57.60;20.40;94354.00;;;;10424829;28;45155;-58
2022/09/05 01:37:53;;;;;;;0.95;0.73;;;18.20;57.70;20.30;94353.00;;;;10428633;28;45167;-58
2022/09/05 01:43:24;;;;;;;1.27;0.68;;;18.20;57.60;20.30;94355.00;;;;10458799;28;45250;-55
2022/09/05 01:48:56;;;;;;;0.90;0.70;;;18.20;57.70;20.30;94351.00;;;;10445679;28;45230;-57
2022/09/05 01:54:25;;;;;;;1.42;0.85;;;18.20;57.70;20.30;94340.00;;;;10444665;28;45487;-58
2022/09/05 01:59:52;;;;;;;0.80;0.60;;;18.20;57.60;20.30;94347.00;;;;10433612;28;45202;-58
2022/09/05 02:06:02;;;;;;;1.70;0.70;;;18.20;57.60;20.30;94344.00;;;;10435383;28;45220;-58
2022/09/05 02:11:43;;;;;;;1.05;0.80;;;18.10;57.60;20.30;94341.00;;;;10402959;28;45247;-56
2022/09/05 02:17:16;;;;;;;1.70;0.77;;;18.20;57.60;20.30;94343.00;;;;10461983;28;45866;-59
2022/09/05 02:22:46;;;;;;;1.30;0.70;;;18.10;57.40;20.30;94332.00;;;;10435126;28;45175;-57
2022/09/05 02:28:14;;;;;;;1.02;0.70;;;18.10;57.50;20.20;94320.00;;;;10433151;28;45262;-58
2022/09/05 02:33:44;;;;;;;0.82;0.77;;;18.10;57.50;20.20;94332.00;;;;10447274;28;45357;-58
2022/09/05 02:39:17;;;;;;;1.20;0.82;;;18.10;57.40;20.20;94318.00;;;;10434042;28;45205;-58
2022/09/05 02:44:57;;;;;;;0.90;0.63;;;18.10;57.40;20.20;94328.00;;;;10433796;28;45336;-58
2022/09/05 02:50:41;;;;;;;2.85;0.80;;;18.10;57.50;20.20;94325.00;;;;10433902;28;45157;-58
2022/09/05 02:56:32;;;;;;;1.05;0.60;;;18.00;57.40;20.20;94313.00;;;;10451983;28;45107;-58
2022/09/05 03:02:03;;;;;;;0.80;0.70;;;18.10;57.30;20.20;94310.00;;;;10459314;28;45243;-59
2022/09/05 03:07:43;;;;;;;1.77;0.90;;;18.00;57.40;20.20;94309.00;;;;10467105;28;46013;-57
2022/09/05 03:14:08;;;;;;;0.60;0.60;;;18.00;57.40;20.10;94304.00;;;;10457475;28;45119;-57
2022/09/05 03:20:11;;;;;;;0.70;0.63;;;18.00;57.30;20.10;94312.00;;;;10453149;28;45193;-58
2022/09/05 03:26:27;;;;;;;1.50;0.70;;;17.90;57.40;20.10;94303.00;;;;10453323;28;45434;-57
2022/09/05 03:32:48;;;;;;;0.70;0.65;;;18.00;57.30;20.10;94305.00;;;;10462379;28;45870;-59
2022/09/05 03:39:06;;;;;;;1.92;0.70;;;17.90;57.40;20.10;94318.00;;;;10442861;28;45130;-58
2022/09/05 03:44:48;;;;;;;1.17;0.80;;;18.00;57.40;20.10;94305.00;;;;10465142;28;45692;-59
2022/09/05 03:50:24;;;;;;;2.03;0.90;;;18.00;57.30;20.10;94305.00;;;;10451669;28;45179;-59
2022/09/05 03:56:02;;;;;;;0.47;0.47;;;18.00;57.30;20.10;94319.00;;;;10464906;28;45197;-58
2022/09/05 04:01:34;;;;;;;1.23;0.70;;;17.90;57.30;20.10;94317.00;;;;10451987;28;45183;-57
2022/09/05 04:07:00;;;;;;;1.20;0.80;;;17.90;57.30;20.10;94326.00;;;;10463023;28;45679;-57
2022/09/05 04:12:27;;;;;;;1.15;0.85;;;17.90;57.20;20.10;94314.00;;;;10453799;28;45088;-58
2022/09/05 04:17:52;;;;;;;;;;;18.00;57.30;20.10;94323.00;;;;10473582;28;45185;-59
2022/09/05 04:23:28;;;;;;;1.83;0.93;;;17.90;57.20;20.00;94315.00;;;;10450600;28;45360;-57
2022/09/05 04:29:02;;;;;;;1.50;0.85;;;17.90;57.20;20.00;94315.00;;;;10450827;28;44957;-58
2022/09/05 04:34:43;;;;;;;1.90;0.98;;;18.00;57.40;20.00;94327.00;;;;10448002;28;45252;-59
2022/09/05 04:40:36;;;;;;;1.35;1.00;;;17.90;57.30;20.00;94332.00;;;;10436837;28;45691;-58
2022/09/05 04:46:09;;;;;;;1.70;1.10;;;17.90;57.50;20.00;94333.00;;;;10462654;28;45236;-56
2022/09/05 04:51:56;;;;;;;1.48;0.93;;;17.90;57.60;20.00;94339.00;;;;10460738;28;45161;-57
2022/09/05 04:57:24;;;;;;;1.40;1.10;;;17.90;57.70;20.00;94356.00;;;;10448359;28;45229;-58
2022/09/05 05:02:49;;;;;;;1.90;0.70;;;17.90;57.70;20.00;94360.00;;;;10464843;28;45193;-57
2022/09/05 05:08:19;;;;;;;0.90;0.80;;;17.90;57.80;20.00;94366.00;;;;10446869;28;45896;-58
2022/09/05 05:13:46;;;;;;;1.08;0.65;;;17.90;58.00;20.00;94372.00;;;;10449941;28;45267;-59
2022/09/05 05:19:16;;;;;;;3.97;0.80;;;17.90;58.10;20.00;94382.00;;;;10445540;28;45732;-58
2022/09/05 05:24:45;;;;;;;2.53;1.00;;;17.90;58.10;19.90;94384.00;;;;10443318;28;45893;-56
2022/09/05 05:30:10;;;;;;;1.38;1.08;;;17.80;58.60;19.90;94393.00;;;;10446811;28;45782;-56
2022/09/05 05:35:32;;;;;;;0.82;0.70;;;17.80;58.80;19.90;94391.00;;;;10443938;28;45233;-59
2022/09/05 05:41:01;;;;;;;2.22;0.90;;;17.80;58.90;19.90;94400.00;;;;10466996;28;45182;-59
2022/09/05 05:46:34;;;;;;;0.82;0.63;;;17.80;59.10;19.90;94402.00;;;;10465993;28;45201;-59
2022/09/05 05:52:25;;;;;;;1.10;0.88;;;17.80;59.30;19.90;94389.00;;;;10428726;28;45854;-58
2022/09/05 05:58:11;;;;;;;1.58;0.88;;;17.80;59.40;19.90;94408.00;;;;10455582;28;45208;-58
2022/09/05 06:04:03;;;;;;;1.35;0.90;;;17.80;59.70;19.90;94418.00;;;;10428624;28;46237;-58
2022/09/05 06:10:13;;;;;;;0.93;0.80;;;17.80;60.00;19.90;94410.00;;;;10454703;28;45338;-58
2022/09/05 06:16:26;;;;;;;1.67;1.00;;;17.80;60.30;19.90;94426.00;;;;10459602;28;45124;-57
2022/09/05 06:22:36;;;;;;;1.92;1.10;;;17.80;60.30;20.00;94421.00;;;;10469781;28;45675;-57
2022/09/05 06:28:14;;;;;;;1.88;1.20;;;17.80;60.00;20.00;94403.00;;;;10444732;28;45212;-59
2022/09/05 06:34:03;;;;;;;2.90;1.50;;;17.90;59.80;20.10;94401.00;;;;10455389;28;45753;-58
2022/09/05 06:39:48;;;;;;;4.05;1.48;;;18.00;59.80;20.10;94419.00;;;;10442317;28;45221;-56
2022/09/05 06:45:31;;;;;;;3.58;1.58;;;18.00;60.50;20.10;94426.00;;;;10442015;28;45211;-57
2022/09/05 06:51:40;;;;;;;5.43;1.70;;;18.10;60.80;20.10;94429.00;;;;10433325;28;45207;-59
2022/09/05 06:57:48;;;;;;;2.20;1.15;;;18.10;61.00;20.10;94426.00;;;;10455905;28;45683;-59
2022/09/05 07:03:27;;;;;;;2.78;1.30;;;18.10;60.90;20.10;94428.00;;;;10434261;28;45363;-57
2022/09/05 07:08:52;;;;;;;3.25;1.63;;;18.10;61.60;20.10;94438.00;;;;10447588;28;45211;-59
2022/09/05 07:14:20;;;;;;;3.67;1.10;;;18.20;61.60;20.10;94434.00;;;;10441843;28;45874;-59
2022/09/05 07:19:50;;;;;;;2.08;1.10;;;18.10;61.60;20.20;94442.00;;;;10444571;28;45106;-57
2022/09/05 07:25:16;;;;;;;3.58;1.42;;;18.10;61.40;20.20;94438.00;;;;10475429;28;45767;-59
2022/09/05 07:30:41;;;;;;;3.73;1.40;;;18.20;61.20;20.20;94444.00;;;;10440944;28;45453;-57
2022/09/05 07:36:09;;;;;;;4.07;1.48;;;18.20;61.00;20.20;94451.00;;;;10433113;28;45186;-57
2022/09/05 07:41:32;;;;;;;2.83;1.20;;;18.20;61.20;20.20;94460.00;;;;10462364;28;45198;-59
2022/09/05 07:47:03;;;;;;;2.95;1.23;;;18.30;61.30;20.20;94463.00;;;;10448764;28;45787;-59
2022/09/05 07:52:26;;;;;;;1.88;1.10;;;18.20;61.30;20.20;94466.00;;;;10466239;28;45134;-59
2022/09/05 07:57:48;;;;;;;2.58;1.17;;;18.20;61.40;20.20;94455.00;;;;10451598;28;45745;-59
2022/09/05 08:03:13;;;;;;;3.90;1.20;;;18.20;61.40;20.20;94486.00;;;;10472898;28;45750;-59
2022/09/05 08:08:52;;;;;;;1.58;1.13;;;18.30;61.40;20.20;94491.00;;;;10463565;28;45699;-56
2022/09/05 08:14:28;;;;;;;4.32;1.10;;;18.20;61.60;20.20;94494.00;;;;10451410;28;45103;-57
2022/09/05 08:20:06;;;;;;;1.50;1.00;;;18.30;61.90;20.30;94506.00;;;;10441865;28;45114;-58
2022/09/05 08:25:32;;;;;;;2.10;0.85;;;18.30;62.00;20.30;94485.00;;;;10450804;28;45299;-57
2022/09/05 08:31:02;;;;;;;1.50;1.10;;;18.30;62.20;20.30;94499.00;;;;10445566;28;45753;-57
2022/09/05 08:36:33;;;;;;;1.48;1.10;;;18.30;62.40;20.30;94497.00;;;;10438516;28;45171;-59
2022/09/05 08:42:21;;;;;;;1.23;0.90;;;18.30;62.20;20.30;94496.00;;;;10452070;28;45746;-57
2022/09/05 08:47:54;;;;;;;1.42;0.95;;;18.30;62.60;20.30;94494.00;;;;10451628;28;45269;-58
2022/09/05 08:53:26;;;;;;;1.50;1.00;;;18.30;62.50;20.30;94491.00;;;;10449724;28;45144;-59
2022/09/05 08:58:58;;;;;;;1.42;1.00;;;18.30;62.80;20.30;94481.00;;;;10461791;28;45249;-58
2022/09/05 09:04:25;;;;;;;0.88;0.80;;;18.30;62.90;20.30;94471.00;;;;10478542;28;45205;-58
2022/09/05 09:09:59;;;;;;;1.73;1.00;;;18.30;62.80;20.30;94464.00;;;;10470421;28;45569;-58
2022/09/05 09:15:24;;;;;;;1.88;1.02;;;18.30;63.20;20.40;94465.00;;;;10434995;28;45198;-60
2022/09/05 09:20:51;;;;;;;1.35;1.00;;;18.30;62.90;20.40;94465.00;;;;10434426;28;45191;-59
2022/09/05 09:26:16;;;;;;;2.35;0.90;;;18.30;63.10;20.40;94443.00;;;;10435022;28;45165;-59
2022/09/05 09:31:53;;;;;;;1.20;1.02;;;18.40;62.80;20.40;94426.00;;;;10442549;28;44905;-58
2022/09/05 09:38:16;;;;;;;2.13;0.90;;;18.30;62.60;20.40;94433.00;;;;10438407;28;45147;-58
2022/09/05 09:44:10;;;;;;;1.25;1.08;;;18.40;62.60;20.40;94444.00;;;;10435188;28;45713;-57
2022/09/05 09:49:54;;;;;;;3.05;1.00;;;18.40;62.40;20.40;94448.00;;;;10429770;28;45866;-59
2022/09/05 09:56:00;;;;;;;1.20;0.80;;;18.40;62.30;20.40;94437.00;;;;10433814;28;45155;-58
2022/09/05 10:01:34;;;;;;;1.85;0.85;;;18.40;62.30;20.40;94454.00;;;;10427498;28;45187;-59
2022/09/05 10:07:27;;;;;;;3.42;1.00;;;18.40;62.00;20.40;94462.00;;;;10427113;28;45791;-57
2022/09/05 10:13:21;;;;;;;2.05;0.98;;;18.40;62.00;20.50;94436.00;;;;10445512;28;45300;-58
2022/09/05 10:18:59;;;;;;;0.93;0.75;;;18.40;62.10;20.40;94429.00;;;;10429774;28;45239;-58
2022/09/05 10:24:58;;;;;;;2.22;0.98;;;18.40;62.30;20.40;94413.00;;;;10433890;28;45222;-57
2022/09/05 10:30:22;;;;;;;1.05;0.73;;;18.40;62.60;20.50;94397.00;;;;10464406;28;45608;-59
2022/09/05 10:35:50;;;;;;;1.33;0.90;;;18.50;62.80;20.50;94400.00;;;;10475539;28;45563;-57
2022/09/05 10:41:14;;;;;;;1.50;1.00;;;18.50;63.00;20.50;94397.00;;;;10474532;28;45223;-58
2022/09/05 10:46:51;;;;;;;1.90;0.75;;;18.50;63.20;20.50;94385.00;;;;10474892;28;45285;-58
2022/09/05 10:52:19;;;;;;;0.93;0.80;;;18.50;62.80;20.50;94369.00;;;;10471589;28;45121;-58
2022/09/05 10:57:50;;;;;;;1.40;1.05;;;18.50;62.90;20.50;94388.00;;;;10437721;28;45524;-58
2022/09/05 11:03:15;;;;;;;1.30;0.93;;;18.50;62.80;20.50;94379.00;;;;10454937;28;45560;-60
2022/09/05 11:08:48;;;;;;;1.80;1.10;;;18.50;62.90;20.50;94378.00;;;;10452162;28;45504;-61
2022/09/05 11:14:38;;;;;;;3.80;0.95;;;18.50;62.50;20.50;94373.00;;;;10456987;28;45912;-57
2022/09/05 11:20:48;;;;;;;1.48;0.93;;;18.50;62.60;20.50;94373.00;;;;10451194;28;45200;-58
2022/09/05 11:26:29;;;;;;;1.48;1.00;;;18.50;62.60;20.50;94375.00;;;;10453708;28;45285;-57
2022/09/05 11:32:12;;;;;;;1.13;0.82;;;18.50;62.60;20.50;94371.00;;;;10455513;28;45210;-57
2022/09/05 11:38:00;;;;;;;1.63;0.98;;;18.50;62.40;20.60;94366.00;;;;10465525;28;45867;-59
2022/09/05 11:43:59;;;;;;;1.50;0.80;;;18.50;63.10;20.60;94366.00;;;;10457178;28;46572;-59
2022/09/05 11:50:24;;;;;;;1.02;0.88;;;18.60;62.20;20.60;94350.00;;;;10458281;28;45174;-57
2022/09/05 11:56:12;;;;;;;0.95;0.80;;;18.60;62.10;20.60;94355.00;;;;10466073;28;45097;-59
2022/09/05 12:01:43;;;;;;;1.45;0.70;;;18.60;62.20;20.60;94358.00;;;;10458596;28;45744;-60
2022/09/05 12:07:11;;;;;;;1.70;0.95;;;18.60;62.20;20.60;94362.00;;;;10454634;28;45686;-58
2022/09/05 12:12:36;;;;;;;1.35;0.80;;;18.60;62.60;20.60;94342.00;;;;10451424;28;45163;-59
2022/09/05 12:18:15;;;;;;;1.33;0.93;;;18.60;62.90;20.70;94346.00;;;;10452174;28;45507;-59
2022/09/05 12:23:50;;;;;;;2.10;0.88;;;18.60;62.60;20.70;94339.00;;;;10454263;28;45839;-57
2022/09/05 12:29:14;;;;;;;1.45;1.00;;;18.70;62.50;20.70;94334.00;;;;10461368;28;45195;-59
2022/09/05 12:34:49;;;;;;;2.05;1.10;;;18.70;62.30;20.70;94323.00;;;;10429986;28;45159;-57
2022/09/05 12:40:12;;;;;;;2.90;0.90;;;18.60;62.20;20.80;94320.00;;;;10458489;28;45161;-59
2022/09/05 12:45:43;;;;;;;0.93;0.73;;;18.70;62.30;20.80;94325.00;;;;10443708;28;45093;-59
2022/09/05 12:51:09;;;;;;;1.05;0.90;;;18.80;62.00;20.80;94321.00;;;;10451612;28;45908;-58
2022/09/05 12:56:38;;;;;;;3.22;1.00;;;18.90;62.10;20.80;94317.00;;;;10442369;28;45757;-58
2022/09/05 13:02:03;;;;;;;3.03;1.10;;;18.90;62.00;20.90;94315.00;;;;10439207;28;45227;-58
2022/09/05 13:07:39;;;;;;;1.90;0.88;;;18.90;62.00;20.90;94313.00;;;;10456431;28;45243;-58
2022/09/05 13:13:06;;;;;;;1.77;0.90;;;19.00;62.00;21.00;94321.00;;;;10469626;28;45166;-60
2022/09/05 13:18:38;;;;;;;2.97;1.45;;;19.00;61.80;21.20;94313.00;;;;10428650;28;45394;-59
2022/09/05 13:24:10;;;;;;;1.95;1.08;;;19.10;62.20;21.30;94288.00;;;;10454467;28;45241;-59
2022/09/05 13:29:47;;;;;;;2.35;1.15;;;19.30;61.90;21.40;94305.00;;;;10436804;28;45269;-59
2022/09/05 13:35:16;;;;;;;3.00;1.20;;;19.40;62.20;21.40;94295.00;;;;10427843;28;45323;-58
2022/09/05 13:40:43;;;;;;;2.78;1.25;;;19.40;62.50;21.30;94301.00;;;;10436306;28;44900;-59
2022/09/05 13:46:15;;;;;;;2.20;1.10;;;19.30;62.20;21.30;94296.00;;;;10468397;28;45267;-60
2022/09/05 13:51:40;;;;;;;1.33;0.95;;;19.30;62.20;21.30;94297.00;;;;10450682;28;45901;-58
2022/09/05 13:57:28;;;;;;;1.95;0.90;;;19.30;62.10;21.40;94284.00;;;;10427497;28;45311;-59
2022/09/05 14:03:14;;;;;;;1.63;1.10;;;19.30;61.90;21.40;94278.00;;;;10427661;28;45229;-60
2022/09/05 14:08:50;;;;;;;2.58;1.40;;;19.30;61.80;21.40;94279.00;;;;10427124;28;45202;-58
2022/09/05 14:14:21;;;;;;;2.03;0.80;;;19.30;61.80;21.40;94268.00;;;;10459104;28;45279;-60
2022/09/05 14:25:27;;;;;;;1.65;1.10;;;19.30;61.40;21.40;94264.00;;;;10468942;28;45805;-59
2022/09/05 14:30:53;;;;;;;1.95;1.17;;;19.30;61.40;21.40;94261.00;;;;10469353;28;45338;-59
2022/09/05 14:36:33;;;;;;;2.65;1.10;;;19.30;61.20;21.50;94256.00;;;;10468337;28;45451;-60
2022/09/05 14:42:19;;;;;;;2.97;1.00;;;19.40;61.10;21.40;94243.00;;;;10461281;28;45156;-59
2022/09/05 14:48:40;;;;;;;1.80;1.00;;;19.40;60.90;21.50;94240.00;;;;10429964;28;45670;-59
2022/09/05 14:54:11;;;;;;;1.80;0.90;;;19.40;60.70;21.50;94242.00;;;;10277705;28;45708;-59
2022/09/05 14:59:36;;;;;;;1.73;0.90;;;19.40;60.70;21.50;94246.00;;;;10436895;28;45144;-60
2022/09/05 15:05:05;;;;;;;1.92;0.98;;;19.40;60.60;21.50;94237.00;;;;10427941;28;45232;-59
2022/09/05 15:10:34;;;;;;;3.22;1.00;;;19.40;60.60;21.50;94247.00;;;;10432759;28;45685;-59
2022/09/05 15:16:05;;;;;;;1.55;0.88;;;19.40;60.50;21.50;94232.00;;;;10432856;28;45198;-59
2022/09/05 15:21:33;;;;;;;1.35;0.90;;;19.50;60.30;21.50;94238.00;;;;10432355;28;45195;-60
2022/09/05 15:26:55;;;;;;;0.98;0.70;;;19.50;60.40;21.50;94236.00;;;;10449168;28;45422;-60
2022/09/05 15:32:21;;;;;;;1.65;0.80;;;19.50;60.30;21.60;94229.00;;;;10433525;28;45428;-60
2022/09/05 15:37:44;;;;;;;1.73;0.80;;;19.60;60.00;21.60;94231.00;;;;10432295;28;45491;-60
2022/09/05 15:43:04;;;;;;;1.40;0.90;;;19.60;60.00;21.60;94221.00;;;;10444812;28;45720;-60
2022/09/05 15:48:26;;;;;;;1.77;0.85;;;19.60;59.80;21.60;94223.00;;;;10455085;28;45335;-60
2022/09/05 15:53:51;;;;;;;1.90;0.90;;;19.60;59.80;21.60;94214.00;;;;10448598;28;45290;-60
2022/09/05 15:59:13;;;;;;;2.33;0.95;;;19.60;59.80;21.70;94223.00;;;;10431379;28;45259;-59
2022/09/05 16:04:34;;;;;;;1.30;0.60;;;19.60;59.80;21.70;94211.00;;;;10430936;28;45149;-60
2022/09/05 16:09:57;;;;;;;2.33;1.00;;;19.60;59.80;21.70;94201.00;;;;10430870;28;45147;-60
2022/09/05 16:15:21;;;;;;;1.10;0.80;;;19.60;59.70;21.70;94193.00;;;;10430374;28;45215;-60
2022/09/05 16:20:49;;;;;;;1.02;0.80;;;19.70;59.80;21.80;94199.00;;;;10462118;28;45827;-60
2022/09/05 16:26:16;;;;;;;1.33;0.65;;;19.70;59.70;21.80;94180.00;;;;10458375;28;45242;-60
2022/09/05 16:31:45;;;;;;;2.60;1.02;;;19.70;59.50;21.80;94187.00;;;;10445416;28;45755;-60
2022/09/05 16:37:12;;;;;;;4.40;1.42;;;19.70;59.40;21.80;94193.00;;;;10446383;28;45809;-60
2022/09/05 16:42:38;;;;;;;;;;;19.70;59.20;21.80;94190.00;;;;10457472;28;45220;-60
2022/09/05 16:48:16;;;;;;;4.50;1.40;;;19.80;59.30;21.70;94200.00;;;;10435054;28;45202;-60
2022/09/05 16:53:41;;;;;;;3.22;1.40;;;19.70;59.30;21.70;94199.00;;;;10467571;28;45170;-60
2022/09/05 16:59:08;;;;;;;3.50;1.30;;;19.70;59.50;21.70;94189.00;;;;10471684;28;45185;-62
2022/09/05 17:04:40;;;;;;;6.20;2.15;;;19.70;59.40;21.70;94186.00;;;;10438241;28;45205;-61
2022/09/05 17:10:08;;;;;;;8.80;2.20;;;19.70;59.30;21.80;94184.00;;;;10438335;28;45235;-59
2022/09/05 17:15:35;;;;;;;6.68;2.15;;;19.60;59.50;21.70;94184.00;;;;10428533;28;45479;-60
2022/09/05 17:20:59;;;;;;;10.47;2.37;;;19.60;59.40;21.70;94195.00;;;;10436429;28;45159;-60
2022/09/05 17:26:35;;;;;;;6.80;1.90;;;19.60;59.40;21.60;94186.00;;;;10430372;28;45214;-61
2022/09/05 17:31:59;;;;;;;7.80;1.80;;;19.60;59.40;21.60;94188.00;;;;10457309;28;45758;-60
2022/09/05 17:37:51;;;;;;;9.07;1.88;;;19.50;59.50;21.60;94181.00;;;;10433385;28;45405;-61
2022/09/05 17:43:24;;;;;;;6.22;1.73;;;19.50;59.50;21.60;94161.00;;;;10458643;28;45901;-61
2022/09/05 17:49:03;;;;;;;7.25;2.03;;;19.50;59.50;21.60;94154.00;;;;10447383;28;45750;-61
2022/09/05 17:54:28;;;;;;;5.95;2.00;;;19.50;59.60;21.60;94162.00;;;;10440556;28;45190;-61
2022/09/05 17:59:50;;;;;;;4.15;1.85;;;19.40;59.60;21.50;94170.00;;;;10427173;28;45202;-60
2022/09/05 18:06:02;;;;;;;4.63;2.05;;;19.40;59.50;21.50;94162.00;;;;10427239;28;45476;-61
2022/09/05 18:12:10;;;;;;;6.18;1.90;;;19.40;59.60;21.50;94197.00;;;;10462594;28;45253;-61
2022/09/05 18:18:07;;;;;;;6.73;1.50;;;19.40;59.60;21.50;94181.00;;;;10465149;28;45571;-61
2022/09/05 18:23:41;;;;;;;4.90;2.00;;;19.40;59.70;21.50;94177.00;;;;10426329;28;45137;-60
2022/09/05 18:29:07;;;;;;;4.70;1.67;;;19.40;59.60;21.50;94185.00;;;;10426976;28;45781;-60
2022/09/05 18:35:17;;;;;;;3.42;1.60;;;19.30;59.70;21.50;94199.00;;;;10426337;28;45457;-61
2022/09/05 18:40:52;;;;;;;4.22;1.38;;;19.40;59.80;21.50;94184.00;;;;10464992;28;45714;-61
2022/09/05 18:46:18;;;;;;;6.15;1.70;;;19.40;59.70;21.40;94196.00;;;;10471566;28;45698;-61
2022/09/05 18:51:52;;;;;;;3.13;1.52;;;19.30;59.80;21.40;94208.00;;;;10452412;28;45513;-61
2022/09/05 18:57:17;;;;;;;5.05;1.65;;;19.30;59.80;21.40;94195.00;;;;10433761;28;44988;-61
2022/09/05 19:02:42;;;;;;;4.32;1.52;;;19.30;59.70;21.40;94197.00;;;;10433439;28;45800;-60
2022/09/05 19:08:12;;;;;;;3.17;1.30;;;19.30;59.80;21.40;94177.00;;;;10432456;28;45280;-60
2022/09/05 19:13:38;;;;;;;5.68;1.40;;;19.30;59.80;21.40;94192.00;;;;10433043;28;45175;-61
2022/09/05 19:19:12;;;;;;;3.53;1.38;;;19.30;59.80;21.40;94197.00;;;;10463269;28;45759;-60
2022/09/05 19:24:36;;;;;;;3.83;1.42;;;19.30;59.80;21.40;94201.00;;;;10474230;28;45142;-60
2022/09/05 19:29:58;;;;;;;6.65;1.42;;;19.30;59.80;21.40;94204.00;;;;10447592;28;45478;-60
2022/09/05 19:35:21;;;;;;;6.55;1.80;;;19.20;59.80;21.30;94190.00;;;;10431496;28;45345;-61
2022/09/05 19:40:45;;;;;;;3.10;1.25;;;19.20;59.90;21.40;94203.00;;;;10440475;28;45304;-61
2022/09/05 19:46:15;;;;;;;3.50;1.40;;;19.20;59.80;21.30;94202.00;;;;10470232;28;45730;-61
2022/09/05 19:51:37;;;;;;;2.33;1.20;;;19.20;59.80;21.30;94213.00;;;;10450446;28;45153;-61
2022/09/05 19:57:01;;;;;;;3.67;1.17;;;19.20;59.80;21.30;94189.00;;;;10427389;28;45096;-62
2022/09/05 20:02:31;;;;;;;3.35;1.08;;;19.20;59.80;21.30;94184.00;;;;10429173;28;45174;-60
2022/09/05 20:07:53;;;;;;;3.75;1.27;;;19.20;59.80;21.30;94203.00;;;;10430687;28;45251;-60
2022/09/05 20:13:23;;;;;;;2.10;1.08;;;19.20;59.80;21.30;94190.00;;;;10430651;28;45882;-60
2022/09/05 20:18:44;;;;;;;2.50;1.20;;;19.20;59.80;21.30;94212.00;;;;10431122;28;45224;-61
2022/09/05 20:24:06;;;;;;;2.88;1.20;;;19.20;59.90;21.30;94194.00;;;;10443118;28;45850;-60
2022/09/05 20:29:37;;;;;;;3.08;1.15;;;19.20;59.90;21.30;94209.00;;;;10429929;28;45811;-61
2022/09/05 20:35:02;;;;;;;2.03;1.08;;;19.10;59.90;21.30;94205.00;;;;10443699;28;45167;-61
2022/09/05 20:40:23;;;;;;;2.92;0.93;;;19.10;59.90;21.30;94211.00;;;;10436029;28;45284;-61
2022/09/05 20:45:49;;;;;;;1.83;1.13;;;19.10;59.80;21.30;94204.00;;;;10472270;28;45259;-61
2022/09/05 20:51:11;;;;;;;2.30;1.02;;;19.20;59.90;21.20;94210.00;;;;10446084;28;45238;-61
2022/09/05 20:56:31;;;;;;;1.50;1.00;;;19.10;59.80;21.30;94211.00;;;;10429698;28;45850;-61
2022/09/05 21:02:00;;;;;;;2.15;0.90;;;19.10;59.80;21.20;94224.00;;;;10429429;28;45795;-61
2022/09/05 21:07:34;;;;;;;1.83;0.90;;;19.10;59.80;21.20;94217.00;;;;10429047;28;45148;-62
2022/09/05 21:12:57;;;;;;;1.00;0.70;;;19.10;59.80;21.20;94201.00;;;;10429413;28;45285;-60
2022/09/05 21:18:21;;;;;;;1.83;1.20;;;19.10;59.90;21.20;94196.00;;;;10428485;28;45250;-60
2022/09/05 21:23:43;;;;;;;1.63;0.80;;;19.10;59.80;21.20;94218.00;;;;10457228;28;45915;-61
2022/09/05 21:29:07;;;;;;;2.47;1.10;;;19.10;59.80;21.20;94209.00;;;;10442210;28;45820;-61
2022/09/05 21:34:31;;;;;;;1.85;0.95;;;19.10;59.80;21.20;94207.00;;;;10428881;28;45335;-61
2022/09/05 21:39:54;;;;;;;1.30;1.00;;;19.20;60.00;21.20;94198.00;;;;10456033;28;45699;-62
2022/09/05 21:45:17;;;;;;;3.22;0.90;;;19.10;59.80;21.20;94206.00;;;;10469806;28;45122;-61
2022/09/05 21:50:43;;;;;;;1.85;0.98;;;19.10;59.90;21.20;94205.00;;;;10440490;28;45790;-61
2022/09/05 21:56:10;;;;;;;1.30;0.80;;;19.10;59.80;21.20;94185.00;;;;10450791;28;45177;-61
2022/09/05 22:01:30;;;;;;;1.88;0.93;;;19.10;59.90;21.20;94193.00;;;;10427702;28;45229;-59
2022/09/05 22:06:52;;;;;;;1.63;0.80;;;19.10;59.80;21.20;94173.00;;;;10427742;28;45803;-60
2022/09/05 22:12:15;;;;;;;2.85;0.90;;;19.10;59.90;21.20;94190.00;;;;10456810;28;45170;-61
2022/09/05 22:17:37;;;;;;;0.73;0.70;;;19.10;60.70;21.20;94193.00;;;;10475698;28;45730;-59
2022/09/05 22:22:59;;;;;;;1.45;0.93;;;19.10;60.00;21.20;94185.00;;;;10475619;28;45216;-60
2022/09/05 22:28:24;;;;;;;1.77;0.88;;;19.10;60.00;21.20;94177.00;;;;10453588;28;45859;-61
2022/09/05 22:33:45;;;;;;;1.30;0.75;;;19.10;59.90;21.20;94167.00;;;;10434003;28;45285;-60
2022/09/05 22:39:06;;;;;;;1.17;0.73;;;19.10;59.90;21.20;94159.00;;;;10432368;28;45210;-59
2022/09/05 22:44:28;;;;;;;1.77;0.70;;;19.00;59.90;21.20;94158.00;;;;10446847;28;45745;-60
2022/09/05 22:49:49;;;;;;;1.42;0.68;;;19.00;59.90;21.10;94158.00;;;;10440757;28;45283;-60
2022/09/05 22:55:10;;;;;;;1.27;0.85;;;19.10;60.10;21.10;94160.00;;;;10448800;28;45222;-60
2022/09/05 23:00:33;;;;;;;1.17;0.80;;;19.00;60.00;21.10;94150.00;;;;10432915;28;45766;-60
2022/09/05 23:05:53;;;;;;;2.22;0.80;;;19.10;60.00;21.10;94165.00;;;;10462965;28;45177;-60
2022/09/05 23:11:17;;;;;;;1.15;0.80;;;19.00;59.90;21.10;94156.00;;;;10474657;28;45313;-60
2022/09/05 23:16:39;;;;;;;1.30;0.80;;;19.00;59.90;21.10;94156.00;;;;10474731;28;45149;-60
2022/09/05 23:22:00;;;;;;;2.47;0.80;;;19.00;59.90;21.10;94148.00;;;;10474649;28;45138;-60
2022/09/05 23:27:20;;;;;;;0.77;0.77;;;19.00;60.00;21.10;94163.00;;;;10462393;28;45139;-60
2022/09/05 23:32:46;;;;;;;1.48;0.90;;;19.00;60.00;21.10;94144.00;;;;10445404;28;45204;-59
2022/09/05 23:38:10;;;;;;;1.02;0.80;;;19.00;60.00;21.10;94147.00;;;;10459630;28;45471;-60
2022/09/05 23:43:31;;;;;;;1.50;1.00;;;19.00;60.10;21.10;94155.00;;;;10473320;28;45208;-61
2022/09/05 23:48:52;;;;;;;0.90;0.80;;;19.00;60.00;21.10;94155.00;;;;10448261;28;45507;-61
2022/09/05 23:54:13;;;;;;;1.52;0.90;;;19.00;60.00;21.10;94147.00;;;;10431571;28;45139;-60
2022/09/05 23:59:33;;;;;;;1.65;0.82;;;19.00;60.10;21.10;94149.00;;;;10462287;28;45911;-60
